KPPQ

Pittsfield Penstone Municipal Airport

Pittsfield, Illinois, USA
METAR KPPQ 140715Z AUTO 01005KT 5SM OVC003 04/04 A3006 RMK AO2 T00420042
Observed Flight Rules
Dec-14 @ 07:15 UTC (26 minutes ago) Instrument Flight Rules
Wind Visibility Clouds
10° at 5 knots 5 miles
  • Overcast at 300' AGL
Temperatures Readings
Current 4°C / 39°F
Dewpoint 4°C / 39°F
Humidity 100%
Altimeter 30.06" Hg
Pressure 1018 hPa
Elevation 216
METAR KPPQ 140715Z AUTO 01005KT 5SM OVC003 04/04 A3006 RMK AO2 T00420042
Observed Flight Rules
Dec-14 @ 07:15 UTC
(26 minutes ago)
LIFR
Wind Visibility
10° at 5 knots 5 miles
Clouds
  • Overcast at 300' AGL
Temperature Dewpoint
4°C / 39°F 4°C / 39°F
Humidity Altimeter Pressure
100% 30.06" Hg 1018 hPa